createdAt,value
2018-08-28T00:00:03.390Z,70.69
2018-08-28T00:00:42.025Z,71.95
2018-08-28T00:01:26.436Z,70.59
2018-08-28T00:02:04.933Z,70.64
2018-08-28T00:02:43.239Z,70.82
2018-08-28T00:03:21.433Z,72.01
2018-08-28T00:03:59.474Z,70.49
2018-08-28T00:04:37.433Z,72.04
2018-08-28T00:05:15.555Z,71.29
2018-08-28T00:05:53.509Z,71.90
2018-08-28T00:06:32.211Z,72.15
2018-08-28T00:07:10.136Z,72.04
2018-08-28T00:07:48.008Z,71.69
2018-08-28T00:08:25.929Z,70.93
2018-08-28T00:09:03.906Z,71.52
2018-08-28T00:09:42.104Z,71.73
2018-08-28T00:10:19.976Z,70.85
2018-08-28T00:10:57.815Z,70.56
2018-08-28T00:11:35.650Z,70.88
2018-08-28T00:12:13.483Z,70.31
2018-08-28T00:12:51.745Z,71.41
2018-08-28T00:13:29.704Z,70.38
2018-08-28T00:14:07.643Z,71.22
2018-08-28T00:14:46.090Z,70.82
2018-08-28T00:15:24.053Z,70.88
2018-08-28T00:16:01.993Z,71.05
2018-08-28T00:16:39.964Z,70.86
2018-08-28T00:17:18.065Z,70.51
2018-08-28T00:17:56.043Z,69.67
2018-08-28T00:18:33.979Z,69.91
2018-08-28T00:19:11.998Z,69.33
2018-08-28T00:19:49.848Z,69.53
2018-08-28T00:20:27.936Z,69.37
2018-08-28T00:21:05.955Z,69.24
2018-08-28T00:21:43.951Z,69.71
2018-08-28T00:22:21.858Z,69.41
2018-08-28T00:22:59.803Z,71.00
2018-08-28T00:23:37.753Z,69.83
2018-08-28T00:24:16.600Z,69.96
2018-08-28T00:24:54.509Z,70.27
2018-08-28T00:25:32.370Z,70.15
2018-08-28T00:26:10.292Z,70.84
2018-08-28T00:26:48.309Z,69.77
2018-08-28T00:27:26.344Z,70.40
2018-08-28T00:28:04.408Z,70.32
2018-08-28T00:28:42.307Z,70.48
2018-08-28T00:29:20.246Z,69.23
2018-08-28T00:29:58.206Z,69.93
2018-08-28T00:30:36.070Z,69.36
2018-08-28T00:31:14.002Z,70.41
2018-08-28T00:31:52.034Z,70.89
2018-08-28T00:32:29.964Z,70.14
2018-08-28T00:33:07.782Z,70.86
2018-08-28T00:33:45.803Z,69.30
2018-08-28T00:34:23.724Z,69.30
2018-08-28T00:35:01.864Z,69.75
2018-08-28T00:35:40.360Z,69.84
2018-08-28T00:36:18.421Z,70.47
2018-08-28T00:36:56.336Z,70.33
2018-08-28T00:37:34.279Z,69.22
2018-08-28T00:38:12.254Z,69.13
2018-08-28T00:38:50.246Z,69.37
2018-08-28T00:39:28.189Z,68.92
2018-08-28T00:40:06.155Z,69.96
2018-08-28T00:40:44.051Z,68.79
2018-08-28T00:41:22.053Z,69.75
2018-08-28T00:42:00.018Z,69.57
2018-08-28T00:42:37.951Z,68.88
2018-08-28T00:43:15.849Z,68.40
2018-08-28T00:43:53.918Z,68.58
2018-08-28T00:44:31.838Z,69.04
2018-08-28T00:45:09.891Z,68.06
2018-08-28T00:45:47.836Z,68.15
2018-08-28T00:46:25.808Z,68.57
2018-08-28T00:47:03.727Z,68.31
2018-08-28T00:47:41.575Z,67.75
2018-08-28T00:48:20.401Z,67.88
2018-08-28T00:48:58.436Z,67.93
2018-08-28T00:49:36.413Z,67.59
2018-08-28T00:50:14.567Z,67.72
2018-08-28T00:50:52.491Z,67.14
2018-08-28T00:51:30.446Z,67.61
2018-08-28T00:52:08.559Z,66.96
2018-08-28T00:52:46.677Z,66.59
2018-08-28T00:53:24.900Z,67.42
2018-08-28T00:54:03.167Z,66.25
2018-08-28T00:54:41.353Z,67.16
2018-08-28T00:55:19.624Z,67.30
2018-08-28T00:55:57.832Z,66.91
2018-08-28T00:56:36.162Z,67.16
2018-08-28T00:57:15.668Z,66.79
2018-08-28T00:57:54.307Z,66.64
2018-08-28T00:58:32.788Z,66.19
2018-08-28T00:59:11.354Z,65.66
2018-08-28T00:59:51.080Z,65.35
2018-08-28T01:00:29.640Z,65.86
2018-08-28T01:01:08.388Z,65.83
2018-08-28T01:01:47.175Z,66.17
2018-08-28T01:02:26.134Z,65.32
2018-08-28T01:03:04.745Z,65.12
2018-08-28T01:03:43.675Z,65.26
2018-08-28T01:04:22.587Z,64.89
2018-08-28T01:05:01.120Z,65.28
2018-08-28T01:05:39.691Z,65.06
2018-08-28T01:06:18.419Z,65.11
2018-08-28T01:06:57.899Z,64.75
2018-08-28T01:07:37.498Z,64.67
2018-08-28T01:08:16.983Z,64.95
2018-08-28T01:08:56.695Z,64.39
2018-08-28T01:09:35.205Z,63.54
2018-08-28T01:10:15.213Z,63.59
2018-08-28T01:10:53.943Z,63.85
2018-08-28T01:11:32.604Z,63.62
2018-08-28T01:12:11.379Z,63.68
2018-08-28T01:12:49.978Z,63.07
2018-08-28T01:13:28.558Z,63.36
2018-08-28T01:14:07.163Z,63.53
2018-08-28T01:14:46.087Z,63.73
2018-08-28T01:15:25.157Z,62.87
2018-08-28T01:16:03.888Z,62.68
2018-08-28T01:16:42.507Z,63.16
2018-08-28T01:17:21.106Z,62.45
2018-08-28T01:17:59.762Z,62.08
2018-08-28T01:18:38.251Z,61.65
2018-08-28T01:19:17.063Z,61.55
2018-08-28T01:19:55.679Z,61.19
2018-08-28T01:20:34.499Z,61.00
2018-08-28T01:21:13.224Z,60.86
2018-08-28T01:21:51.818Z,60.51
2018-08-28T01:22:30.423Z,60.38
2018-08-28T01:23:09.043Z,60.09
2018-08-28T01:23:47.692Z,59.89
2018-08-28T01:24:26.502Z,59.92
2018-08-28T01:25:05.026Z,59.58
2018-08-28T01:25:43.313Z,59.17
2018-08-28T01:26:21.990Z,59.14
2018-08-28T01:27:01.030Z,59.05
2018-08-28T01:27:42.141Z,58.81
2018-08-28T01:28:20.205Z,58.81
2018-08-28T01:28:58.221Z,58.55
2018-08-28T01:29:36.072Z,58.12
2018-08-28T01:30:14.081Z,57.72
2018-08-28T01:30:51.969Z,57.57
2018-08-28T01:31:29.842Z,57.47
2018-08-28T01:32:07.748Z,57.51
2018-08-28T01:32:45.709Z,57.35
2018-08-28T01:33:23.716Z,57.53
2018-08-28T01:34:01.748Z,57.01
2018-08-28T01:34:39.643Z,57.66
2018-08-28T01:35:17.602Z,57.01
2018-08-28T01:35:55.742Z,57.71
2018-08-28T01:36:33.665Z,56.99
2018-08-28T01:37:11.708Z,57.10
2018-08-28T01:37:49.776Z,57.35
2018-08-28T01:38:27.664Z,56.31
2018-08-28T01:39:06.035Z,56.31
2018-08-28T01:39:43.865Z,56.29
2018-08-28T01:40:21.872Z,56.46
2018-08-28T01:41:00.153Z,56.31
2018-08-28T01:41:38.156Z,56.37
2018-08-28T01:42:21.538Z,56.43
2018-08-28T01:43:00.579Z,55.92
2018-08-28T01:43:38.522Z,56.49
2018-08-28T01:44:16.405Z,56.72
2018-08-28T01:44:54.432Z,55.67
2018-08-28T01:45:32.601Z,56.38
2018-08-28T01:46:10.448Z,56.11
2018-08-28T01:46:48.454Z,55.90
2018-08-28T01:47:26.460Z,55.90
2018-08-28T01:48:04.412Z,54.61
2018-08-28T01:48:42.182Z,55.55
2018-08-28T01:49:20.236Z,55.60
2018-08-28T01:49:59.307Z,55.13
2018-08-28T01:50:37.398Z,54.95
2018-08-28T01:51:15.381Z,54.53
2018-08-28T01:51:53.208Z,54.17
2018-08-28T01:52:32.219Z,53.54
2018-08-28T01:53:10.285Z,53.44
2018-08-28T01:53:48.373Z,52.98
2018-08-28T01:54:27.116Z,54.11
2018-08-28T01:55:05.787Z,53.38
2018-08-28T01:55:43.855Z,53.78
2018-08-28T01:56:21.907Z,52.93
2018-08-28T01:56:59.821Z,52.81
2018-08-28T01:57:37.701Z,52.61
2018-08-28T02:02:55.760Z,52.26
2018-08-28T02:04:43.814Z,51.95
2018-08-28T02:05:21.671Z,52.12
2018-08-28T02:05:59.572Z,52.47
2018-08-28T02:06:37.642Z,52.49
2018-08-28T02:07:15.625Z,52.96
2018-08-28T02:07:53.625Z,52.15
2018-08-28T02:08:31.625Z,52.54
2018-08-28T02:09:10.916Z,52.26
2018-08-28T02:09:48.821Z,52.33
2018-08-28T02:10:26.749Z,51.81
2018-08-28T02:11:04.621Z,53.05
2018-08-28T02:11:42.582Z,51.75
2018-08-28T02:12:21.426Z,52.33
2018-08-28T02:13:00.088Z,51.15
2018-08-28T02:13:37.992Z,52.45
2018-08-28T02:14:16.928Z,52.37
2018-08-28T02:14:54.809Z,51.45
2018-08-28T02:15:32.780Z,51.97
2018-08-28T02:16:10.743Z,51.87
2018-08-28T02:16:48.739Z,51.54
2018-08-28T02:17:26.981Z,51.14
2018-08-28T02:18:04.883Z,50.53
2018-08-28T02:18:42.916Z,51.59
2018-08-28T02:19:20.846Z,51.26
2018-08-28T02:19:58.756Z,51.79
2018-08-28T02:20:36.751Z,51.90
2018-08-28T02:21:15.399Z,51.58
2018-08-28T02:21:53.452Z,51.45
2018-08-28T02:22:31.588Z,50.95
2018-08-28T02:23:09.485Z,50.64
2018-08-28T02:23:47.448Z,51.22
2018-08-28T02:24:25.432Z,50.80
2018-08-28T02:25:03.224Z,50.35
2018-08-28T02:25:41.109Z,49.83
2018-08-28T02:26:19.269Z,50.27
2018-08-28T02:27:01.459Z,50.04
2018-08-28T02:27:39.544Z,50.49
2018-08-28T02:28:17.573Z,49.58
2018-08-28T02:28:55.502Z,49.21
2018-08-28T02:29:33.582Z,49.42
2018-08-28T02:30:11.543Z,49.70
2018-08-28T02:30:49.547Z,49.81
2018-08-28T02:31:27.487Z,48.29
2018-08-28T02:32:06.550Z,48.03
2018-08-28T02:32:44.480Z,48.50
2018-08-28T02:33:22.501Z,48.68
2018-08-28T02:34:01.384Z,47.80
2018-08-28T02:34:39.426Z,48.13
2018-08-28T02:35:17.298Z,48.57
2018-08-28T02:35:56.182Z,47.52
2018-08-28T02:36:34.115Z,47.23
2018-08-28T02:37:12.058Z,47.15
2018-08-28T02:37:50.053Z,47.13
2018-08-28T02:38:27.856Z,48.24
2018-08-28T02:39:06.652Z,48.10
2018-08-28T02:39:44.625Z,47.08
2018-08-28T02:40:22.531Z,47.69
2018-08-28T02:41:00.486Z,46.71
2018-08-28T02:41:38.373Z,47.42
2018-08-28T02:42:16.685Z,47.26
2018-08-28T02:42:54.752Z,47.09
2018-08-28T02:43:32.652Z,45.93
2018-08-28T02:44:10.634Z,46.93
2018-08-28T02:44:48.498Z,46.21
2018-08-28T02:45:26.369Z,46.55
2018-08-28T02:46:05.523Z,46.37
2018-08-28T02:46:43.363Z,46.37
2018-08-28T02:47:21.384Z,46.11
2018-08-28T02:47:59.331Z,46.08
2018-08-28T02:48:38.018Z,44.85
2018-08-28T02:49:15.888Z,44.81
2018-08-28T02:49:53.743Z,44.82
2018-08-28T02:50:31.607Z,44.96
2018-08-28T02:51:09.476Z,45.06
2018-08-28T02:51:47.573Z,45.18
2018-08-28T02:52:25.510Z,45.24
2018-08-28T02:53:03.359Z,44.46
2018-08-28T02:53:41.335Z,44.34
2018-08-28T02:54:20.071Z,44.24
2018-08-28T02:54:57.989Z,44.02
2018-08-28T02:55:35.891Z,44.39
2018-08-28T02:56:13.796Z,44.66
2018-08-28T02:56:52.606Z,44.88
2018-08-28T02:57:30.625Z,44.22
2018-08-28T02:58:08.558Z,44.18
2018-08-28T02:58:46.483Z,44.08
2018-08-28T02:59:26.042Z,44.73
2018-08-28T03:00:04.102Z,43.74
2018-08-28T03:00:42.048Z,44.44
2018-08-28T03:01:19.964Z,44.53
2018-08-28T03:01:58.791Z,44.33
2018-08-28T03:02:37.031Z,44.14
2018-08-28T03:03:14.880Z,44.15
2018-08-28T03:03:53.270Z,43.99
2018-08-28T03:04:31.727Z,43.81
2018-08-28T03:05:09.709Z,44.02
2018-08-28T03:05:47.543Z,43.29
2018-08-28T03:06:26.320Z,43.28
2018-08-28T03:07:04.313Z,43.15
2018-08-28T03:07:42.297Z,43.52
2018-08-28T03:08:20.431Z,42.69
2018-08-28T03:08:58.657Z,43.34
2018-08-28T03:09:36.506Z,42.79
2018-08-28T03:10:14.609Z,42.82
2018-08-28T03:10:53.816Z,42.78
2018-08-28T03:11:32.796Z,43.75
2018-08-28T03:12:10.674Z,43.94
2018-08-28T03:12:48.497Z,43.87
2018-08-28T03:13:26.721Z,43.64
2018-08-28T03:14:04.684Z,43.06
2018-08-28T03:14:42.628Z,43.58
2018-08-28T03:15:20.480Z,43.17
2018-08-28T03:15:58.537Z,43.41
2018-08-28T03:16:36.661Z,42.60
2018-08-28T03:17:14.729Z,43.36
2018-08-28T03:17:52.560Z,43.31
2018-08-28T03:18:30.770Z,43.24
2018-08-28T03:19:09.724Z,42.74
2018-08-28T03:19:47.565Z,43.35
2018-08-28T03:20:25.454Z,43.17
2018-08-28T03:21:03.777Z,42.75
2018-08-28T03:21:41.934Z,42.42
2018-08-28T03:22:19.987Z,43.06
2018-08-28T03:22:57.929Z,42.85
2018-08-28T03:23:35.853Z,42.85
2018-08-28T03:24:13.770Z,42.52
2018-08-28T03:24:51.718Z,42.61
2018-08-28T03:25:29.574Z,42.73
2018-08-28T03:26:07.428Z,41.92
2018-08-28T03:26:45.660Z,42.43
2018-08-28T03:27:23.491Z,42.39
2018-08-28T03:28:01.393Z,41.61
2018-08-28T03:28:39.815Z,42.07
2018-08-28T03:29:17.846Z,41.89
2018-08-28T03:29:55.800Z,41.41
2018-08-28T03:30:33.788Z,41.95
2018-08-28T03:31:12.689Z,42.14
2018-08-28T03:31:51.704Z,41.60
2018-08-28T03:32:29.612Z,41.64
2018-08-28T03:33:07.749Z,41.08
2018-08-28T03:33:45.667Z,42.13
2018-08-28T03:34:23.567Z,41.59
2018-08-28T03:35:01.499Z,41.98
2018-08-28T03:35:39.464Z,42.43
2018-08-28T03:36:17.537Z,42.14
2018-08-28T03:36:55.735Z,41.31
2018-08-28T03:37:34.700Z,41.84
2018-08-28T03:38:12.768Z,41.79
2018-08-28T03:38:51.022Z,42.05
2018-08-28T03:39:29.065Z,42.23
2018-08-28T03:40:07.046Z,41.70
2018-08-28T03:40:45.101Z,42.28
2018-08-28T03:41:23.119Z,41.69
2018-08-28T03:42:02.467Z,41.92
2018-08-28T03:42:40.455Z,42.04
2018-08-28T03:43:18.420Z,42.24
2018-08-28T03:43:56.364Z,41.88
2018-08-28T03:44:39.904Z,42.42
2018-08-28T03:45:18.976Z,41.75
2018-08-28T03:45:57.006Z,42.34
2018-08-28T03:46:35.027Z,42.03
2018-08-28T03:47:12.885Z,41.36
2018-08-28T03:47:50.759Z,41.30
2018-08-28T03:48:28.728Z,40.73
2018-08-28T03:49:06.623Z,40.08
2018-08-28T03:49:44.480Z,40.46
2018-08-28T03:50:22.688Z,40.47
2018-08-28T03:51:00.629Z,40.37
2018-08-28T03:51:38.475Z,40.36
2018-08-28T03:52:16.938Z,40.68
2018-08-28T03:52:54.952Z,40.06
2018-08-28T03:53:32.817Z,40.07
2018-08-28T03:54:10.974Z,40.18
2018-08-28T03:54:48.989Z,40.25
2018-08-28T03:55:27.181Z,40.42
2018-08-28T03:56:05.194Z,39.98
2018-08-28T03:56:43.152Z,39.68
2018-08-28T03:57:21.016Z,39.52
2018-08-28T03:57:59.173Z,39.49
2018-08-28T03:58:37.012Z,39.66
2018-08-28T03:59:15.228Z,39.51
2018-08-28T03:59:53.127Z,39.44
2018-08-28T04:00:31.276Z,40.17
2018-08-28T04:01:09.238Z,40.33
2018-08-28T04:01:47.322Z,39.77
2018-08-28T04:02:25.914Z,40.12
2018-08-28T04:03:05.233Z,40.42
2018-08-28T04:03:43.298Z,40.81
2018-08-28T04:04:24.287Z,39.75
2018-08-28T04:05:05.238Z,40.35
2018-08-28T04:05:44.142Z,40.15
2018-08-28T04:06:22.222Z,39.56
2018-08-28T04:07:00.128Z,40.47
2018-08-28T04:07:38.760Z,39.80
2018-08-28T04:08:16.631Z,39.87
2018-08-28T04:08:54.664Z,40.48
2018-08-28T04:09:32.697Z,40.24
2018-08-28T04:10:10.711Z,40.50
2018-08-28T04:10:48.664Z,39.66
2018-08-28T04:12:37.043Z,40.13
2018-08-28T04:13:14.810Z,40.17
2018-08-28T04:13:52.836Z,39.49
2018-08-28T04:14:30.870Z,39.32
2018-08-28T04:15:08.959Z,39.46
2018-08-28T04:15:46.805Z,38.97
2018-08-28T04:16:24.631Z,39.20
2018-08-28T04:17:02.669Z,39.04
2018-08-28T04:17:50.415Z,39.46
2018-08-28T04:18:28.234Z,39.58
2018-08-28T04:19:09.188Z,38.95
2018-08-28T04:19:47.159Z,38.88
2018-08-28T04:20:25.249Z,38.60
2018-08-28T04:21:03.420Z,38.56
2018-08-28T04:21:42.137Z,39.30
2018-08-28T04:22:19.993Z,40.12
2018-08-28T04:22:57.894Z,40.44
2018-08-28T04:23:35.792Z,40.29
2018-08-28T04:24:14.122Z,41.25
2018-08-28T04:24:57.547Z,41.45
2018-08-28T04:25:35.448Z,41.00
2018-08-28T04:26:13.303Z,41.76
2018-08-28T04:26:51.294Z,41.12
2018-08-28T04:27:29.263Z,41.57
2018-08-28T04:28:07.315Z,41.66
2018-08-28T04:28:45.197Z,41.70
2018-08-28T04:29:23.243Z,41.67
2018-08-28T04:30:01.174Z,41.56
2018-08-28T04:30:39.273Z,41.56
2018-08-28T04:31:17.278Z,41.60
2018-08-28T04:31:55.144Z,41.05
2018-08-28T04:32:33.197Z,40.81
2018-08-28T04:33:11.167Z,40.91
2018-08-28T04:33:49.239Z,40.38
2018-08-28T04:34:27.082Z,40.23
2018-08-28T04:35:05.181Z,40.84
2018-08-28T04:35:43.070Z,41.07
2018-08-28T04:36:20.979Z,40.83
2018-08-28T04:36:58.948Z,41.16
2018-08-28T04:37:36.824Z,40.63
2018-08-28T04:38:14.818Z,41.21
2018-08-28T04:38:52.648Z,41.13
2018-08-28T04:39:30.555Z,41.34
2018-08-28T04:40:09.034Z,40.42
2018-08-28T04:40:46.988Z,40.33
2018-08-28T04:41:24.932Z,40.50
2018-08-28T04:42:02.869Z,40.40
2018-08-28T04:42:43.680Z,40.82
2018-08-28T04:43:21.866Z,40.19
2018-08-28T04:43:59.797Z,41.11
2018-08-28T04:44:37.789Z,42.12
2018-08-28T04:45:15.629Z,41.70
2018-08-28T04:45:53.616Z,42.75
2018-08-28T04:46:31.606Z,42.34
2018-08-28T04:47:09.666Z,42.35
2018-08-28T04:47:47.632Z,41.74
2018-08-28T04:48:25.591Z,41.50
2018-08-28T04:49:03.571Z,41.90
2018-08-28T04:49:41.552Z,41.83
2018-08-28T04:50:19.415Z,40.87
2018-08-28T04:50:57.399Z,41.76
2018-08-28T04:51:35.470Z,42.01
2018-08-28T04:52:13.365Z,42.08
2018-08-28T04:52:52.019Z,41.55
2018-08-28T04:53:30.041Z,41.99
2018-08-28T04:54:08.710Z,41.29
2018-08-28T04:54:46.766Z,40.97
2018-08-28T04:55:24.797Z,40.63
2018-08-28T04:56:02.605Z,40.93
2018-08-28T04:56:40.609Z,39.38
2018-08-28T04:57:18.635Z,39.30
2018-08-28T04:57:57.213Z,39.62
2018-08-28T04:58:36.281Z,40.53
2018-08-28T04:59:14.271Z,40.42
2018-08-28T04:59:52.192Z,40.47
2018-08-28T05:00:31.210Z,40.58
2018-08-28T05:01:09.193Z,41.26
2018-08-28T05:01:47.146Z,40.13
2018-08-28T05:02:25.361Z,40.06
2018-08-28T05:03:03.298Z,39.06
2018-08-28T05:03:41.222Z,38.59
2018-08-28T05:04:19.171Z,39.04
2018-08-28T05:04:57.020Z,39.10
2018-08-28T05:05:34.917Z,39.25
2018-08-28T05:06:12.836Z,39.82
2018-08-28T05:06:50.741Z,39.79
2018-08-28T05:07:28.683Z,39.83
2018-08-28T05:08:06.717Z,39.97
2018-08-28T05:08:44.622Z,40.18
2018-08-28T05:09:22.595Z,40.00
2018-08-28T05:10:00.509Z,40.22
2018-08-28T05:10:38.480Z,39.25
2018-08-28T05:11:16.345Z,39.95
2018-08-28T05:11:54.513Z,39.20
2018-08-28T05:12:32.601Z,38.74
2018-08-28T05:13:11.615Z,38.64
2018-08-28T05:13:49.574Z,39.66
2018-08-28T05:14:27.553Z,39.89
2018-08-28T05:15:05.400Z,39.83
2018-08-28T05:15:43.328Z,39.09
2018-08-28T05:16:21.366Z,39.37
2018-08-28T05:16:59.353Z,39.01
2018-08-28T05:17:37.650Z,39.35
2018-08-28T05:18:16.747Z,39.48
2018-08-28T05:18:54.742Z,39.30
2018-08-28T05:19:32.711Z,38.77
2018-08-28T05:20:10.662Z,38.34
2018-08-28T05:20:48.690Z,39.02
2018-08-28T05:21:26.602Z,38.94
2018-08-28T05:22:05.273Z,38.39
2018-08-28T05:22:43.178Z,37.64
2018-08-28T05:23:21.116Z,37.61
2018-08-28T05:23:58.996Z,38.18
2018-08-28T05:24:37.045Z,37.64
2018-08-28T05:25:15.089Z,38.56
2018-08-28T05:25:53.025Z,38.43
2018-08-28T05:26:30.998Z,38.48
2018-08-28T05:27:08.982Z,38.78
2018-08-28T05:27:47.111Z,38.71
2018-08-28T05:28:25.284Z,38.13
2018-08-28T05:29:03.273Z,37.80
2018-08-28T05:29:41.321Z,38.43
2018-08-28T05:30:19.364Z,38.69
2018-08-28T05:30:57.422Z,38.79
2018-08-28T05:31:35.412Z,37.82
2018-08-28T05:32:13.238Z,38.49
2018-08-28T05:32:51.112Z,37.85
2018-08-28T05:33:29.062Z,37.50
2018-08-28T05:34:07.521Z,38.21
2018-08-28T05:34:45.795Z,38.22
2018-08-28T05:35:23.731Z,38.15
2018-08-28T05:36:01.636Z,37.62
2018-08-28T05:36:40.526Z,37.64
2018-08-28T05:37:18.541Z,37.33
2018-08-28T05:37:56.442Z,37.04
2018-08-28T05:38:34.446Z,36.94
2018-08-28T05:39:12.541Z,37.67
2018-08-28T05:39:50.641Z,37.13
2018-08-28T05:40:29.619Z,37.70
2018-08-28T05:41:07.664Z,38.05
2018-08-28T05:41:45.542Z,37.47
2018-08-28T05:42:23.407Z,37.70
2018-08-28T05:43:01.299Z,37.82
2018-08-28T05:43:39.209Z,38.17
2018-08-28T05:44:17.923Z,38.00
2018-08-28T05:44:55.834Z,38.01
2018-08-28T05:45:33.960Z,38.32
2018-08-28T05:46:11.873Z,37.50
2018-08-28T05:46:49.789Z,37.69
2018-08-28T05:47:27.688Z,37.38
2018-08-28T05:48:05.714Z,37.31
2018-08-28T05:48:43.669Z,37.62
2018-08-28T05:49:21.535Z,38.13
2018-08-28T05:49:59.481Z,37.75
2018-08-28T05:50:37.434Z,37.98
2018-08-28T05:51:15.330Z,37.39
2018-08-28T05:51:53.349Z,38.16
2018-08-28T05:52:32.317Z,38.25
2018-08-28T05:53:10.287Z,37.77
2018-08-28T05:53:49.108Z,37.61
2018-08-28T05:54:27.109Z,37.08
2018-08-28T05:55:05.241Z,37.57
2018-08-28T05:55:43.187Z,37.77
2018-08-28T05:56:21.167Z,37.62
2018-08-28T05:56:59.429Z,38.24
2018-08-28T05:57:38.238Z,37.97
2018-08-28T05:58:17.028Z,37.57
2018-08-28T05:58:54.911Z,37.91
2018-08-28T05:59:32.908Z,38.21
2018-08-28T06:00:10.818Z,38.14
2018-08-28T06:00:48.692Z,38.82
2018-08-28T06:01:27.779Z,38.00
2018-08-28T06:02:05.975Z,38.48
2018-08-28T06:02:43.855Z,37.99
2018-08-28T06:03:22.050Z,37.77
2018-08-28T06:04:00.592Z,38.38
2018-08-28T06:04:38.500Z,38.23
2018-08-28T06:05:16.332Z,38.23
2018-08-28T06:05:54.386Z,38.33
2018-08-28T06:06:32.467Z,38.39
2018-08-28T06:07:11.628Z,38.45
2018-08-28T06:07:49.827Z,38.72
2018-08-28T06:08:27.953Z,38.91
2018-08-28T06:09:05.950Z,38.37
2018-08-28T06:09:43.770Z,38.79
2018-08-28T06:10:21.690Z,38.58
2018-08-28T06:10:59.800Z,38.57
2018-08-28T06:11:39.691Z,38.35
2018-08-28T06:12:17.695Z,38.25
2018-08-28T06:12:55.902Z,38.70
2018-08-28T06:13:34.455Z,38.71
2018-08-28T06:14:13.358Z,38.95
2018-08-28T06:14:52.170Z,38.48
2018-08-28T06:15:30.217Z,39.54
2018-08-28T06:16:08.263Z,39.25
2018-08-28T06:16:46.409Z,39.08
2018-08-28T06:17:24.326Z,39.27
2018-08-28T06:18:02.184Z,39.13
2018-08-28T06:18:40.173Z,39.79
2018-08-28T06:19:18.069Z,39.61
2018-08-28T06:19:55.912Z,38.57
2018-08-28T06:20:33.908Z,38.05
2018-08-28T06:21:11.745Z,38.50
2018-08-28T06:21:49.895Z,38.01
2018-08-28T06:22:28.061Z,37.75
2018-08-28T06:23:06.041Z,37.85
2018-08-28T06:23:44.183Z,37.53
2018-08-28T06:24:22.884Z,38.10
2018-08-28T06:25:00.876Z,38.09
2018-08-28T06:25:38.868Z,39.03
2018-08-28T06:26:16.905Z,39.09
2018-08-28T06:26:54.726Z,39.46
2018-08-28T06:27:33.580Z,39.73
2018-08-28T06:28:11.470Z,39.92
2018-08-28T06:28:49.505Z,38.94
2018-08-28T06:29:27.965Z,39.10
2018-08-28T06:30:06.084Z,40.31
2018-08-28T06:30:43.890Z,40.24
2018-08-28T06:31:22.022Z,41.20
2018-08-28T06:31:59.838Z,42.04
2018-08-28T06:32:37.721Z,41.69
2018-08-28T06:33:15.569Z,42.16
2018-08-28T06:33:53.638Z,42.33
2018-08-28T06:34:31.633Z,42.93
2018-08-28T06:35:10.965Z,42.80
2018-08-28T06:35:48.811Z,43.34
2018-08-28T06:36:26.680Z,42.57
2018-08-28T06:37:05.550Z,42.99
2018-08-28T06:37:43.465Z,42.74
2018-08-28T06:38:21.518Z,42.73
2018-08-28T06:38:59.429Z,43.04
2018-08-28T06:39:37.335Z,43.99
2018-08-28T06:40:15.290Z,44.29
2018-08-28T06:40:53.316Z,44.42
2018-08-28T06:41:31.415Z,43.31
2018-08-28T06:42:09.470Z,44.13
2018-08-28T06:42:47.409Z,43.21
2018-08-28T06:43:25.444Z,44.09
2018-08-28T06:44:03.516Z,44.63
2018-08-28T06:44:41.423Z,44.74
2018-08-28T06:45:19.359Z,44.10
2018-08-28T06:45:57.325Z,43.95
2018-08-28T06:46:35.525Z,44.00
2018-08-28T06:47:13.395Z,44.59
2018-08-28T06:47:51.335Z,45.02
2018-08-28T06:48:29.203Z,45.21
2018-08-28T06:49:07.212Z,44.84
2018-08-28T06:49:45.321Z,45.11
2018-08-28T06:50:23.571Z,44.54
2018-08-28T06:51:01.574Z,45.00
2018-08-28T06:51:39.620Z,44.72
2018-08-28T06:52:17.516Z,44.64
2018-08-28T06:52:55.561Z,44.75
2018-08-28T06:53:33.476Z,44.89
2018-08-28T06:54:11.364Z,44.71
2018-08-28T06:54:49.246Z,45.49
2018-08-28T06:55:30.544Z,46.05
2018-08-28T06:56:08.648Z,45.42
2018-08-28T06:56:46.692Z,45.59
2018-08-28T06:57:24.633Z,46.32
2018-08-28T06:58:02.507Z,45.43
2018-08-28T06:58:40.471Z,45.57
2018-08-28T06:59:20.351Z,45.81
2018-08-28T06:59:58.508Z,45.90
2018-08-28T07:00:36.279Z,46.32
2018-08-28T07:01:14.261Z,46.32
2018-08-28T07:01:52.215Z,46.86
2018-08-28T07:02:30.104Z,46.10
2018-08-28T07:03:09.146Z,47.01
2018-08-28T07:03:47.096Z,46.96
2018-08-28T07:04:25.015Z,46.30
2018-08-28T07:05:03.468Z,46.20
2018-08-28T07:05:41.568Z,45.89
2018-08-28T07:06:19.369Z,46.89
2018-08-28T07:06:57.361Z,46.28
2018-08-28T07:07:35.353Z,46.46
2018-08-28T07:08:13.248Z,46.95
2018-08-28T07:08:51.180Z,46.34
2018-08-28T07:09:29.070Z,45.38
2018-08-28T07:10:07.209Z,45.82
2018-08-28T07:10:45.088Z,45.33
2018-08-28T07:11:23.132Z,44.92
2018-08-28T07:12:01.011Z,45.29
2018-08-28T07:12:38.928Z,44.98
2018-08-28T07:13:17.532Z,44.68
2018-08-28T07:13:55.645Z,44.21
2018-08-28T07:14:33.993Z,44.07
2018-08-28T07:15:11.953Z,43.32
2018-08-28T07:15:49.880Z,42.77
2018-08-28T07:16:27.832Z,42.34
2018-08-28T07:17:05.746Z,42.61
2018-08-28T07:17:43.670Z,42.76
2018-08-28T07:18:21.886Z,41.58
2018-08-28T07:19:00.104Z,41.81
2018-08-28T07:19:38.124Z,41.47
2018-08-28T07:20:17.025Z,41.03
2018-08-28T07:20:54.903Z,41.38
2018-08-28T07:21:32.965Z,41.20
2018-08-28T07:22:11.022Z,40.55
2018-08-28T07:22:49.049Z,40.95
2018-08-28T07:23:26.912Z,40.15
2018-08-28T07:24:04.869Z,40.02
2018-08-28T07:24:42.810Z,40.18
2018-08-28T07:25:20.722Z,39.98
2018-08-28T07:25:58.761Z,40.02
2018-08-28T07:26:37.545Z,39.26
2018-08-28T07:27:15.440Z,39.29
2018-08-28T07:27:53.489Z,39.43
2018-08-28T07:28:31.440Z,38.65
2018-08-28T07:29:09.389Z,38.02
2018-08-28T07:29:47.360Z,38.33
2018-08-28T07:30:25.305Z,37.63
2018-08-28T07:31:03.304Z,37.98
2018-08-28T07:31:41.371Z,37.79
2018-08-28T07:32:19.237Z,38.18
2018-08-28T07:32:57.222Z,38.59
2018-08-28T07:33:35.014Z,39.18
2018-08-28T07:34:12.951Z,39.24
2018-08-28T07:34:50.751Z,39.42
2018-08-28T07:35:29.025Z,39.40
2018-08-28T07:36:07.153Z,40.12
2018-08-28T07:36:45.108Z,40.01
2018-08-28T07:37:23.090Z,39.77
2018-08-28T07:38:01.047Z,38.80
2018-08-28T07:38:39.137Z,39.00
2018-08-28T07:39:17.067Z,38.60
2018-08-28T07:39:55.045Z,38.96
2018-08-28T07:40:32.904Z,38.78
2018-08-28T07:41:11.035Z,38.98
2018-08-28T07:41:49.201Z,38.88
2018-08-28T07:42:27.147Z,38.65
2018-08-28T07:43:05.227Z,38.58
2018-08-28T07:43:43.105Z,38.53
2018-08-28T07:44:20.912Z,37.64
2018-08-28T07:44:59.030Z,37.65
2018-08-28T07:45:36.945Z,37.80
2018-08-28T07:46:14.941Z,36.97
2018-08-28T07:46:52.865Z,37.37
2018-08-28T07:47:30.845Z,37.14
2018-08-28T07:48:09.106Z,37.13
2018-08-28T07:48:47.092Z,37.24
2018-08-28T07:49:25.098Z,36.81
2018-08-28T07:50:02.943Z,36.74
2018-08-28T07:50:40.858Z,37.25
2018-08-28T07:51:18.775Z,37.35
2018-08-28T07:51:56.694Z,37.10
2018-08-28T07:52:34.724Z,37.37
2018-08-28T07:53:12.593Z,38.05
2018-08-28T07:53:50.651Z,37.87
2018-08-28T07:54:28.890Z,37.79
2018-08-28T07:55:06.772Z,37.94
2018-08-28T07:55:45.740Z,38.01
2018-08-28T07:56:23.706Z,38.31
2018-08-28T07:57:01.747Z,38.43
2018-08-28T07:57:40.253Z,37.61
2018-08-28T07:58:18.615Z,37.78
2018-08-28T07:58:56.458Z,37.34
2018-08-28T07:59:34.475Z,37.77
2018-08-28T08:00:12.497Z,37.42
2018-08-28T08:00:50.696Z,37.71
2018-08-28T08:01:28.736Z,37.86
2018-08-28T08:02:08.117Z,38.18
2018-08-28T08:02:46.003Z,38.75
2018-08-28T08:03:26.522Z,39.22
2018-08-28T08:04:04.460Z,39.54
2018-08-28T08:04:42.373Z,38.94
2018-08-28T08:05:20.432Z,38.71
2018-08-28T08:05:58.783Z,38.63
2018-08-28T08:06:36.595Z,38.65
2018-08-28T08:07:14.660Z,38.64
2018-08-28T08:07:52.611Z,39.28
2018-08-28T08:08:30.551Z,39.70
2018-08-28T08:09:10.700Z,39.68
2018-08-28T08:09:48.744Z,39.28
2018-08-28T08:10:26.828Z,39.26
2018-08-28T08:11:04.789Z,39.40
2018-08-28T08:11:42.833Z,39.06
2018-08-28T08:12:21.296Z,38.14
2018-08-28T08:12:59.165Z,39.06
2018-08-28T08:13:37.168Z,39.07
2018-08-28T08:14:15.863Z,38.90
2018-08-28T08:14:53.800Z,39.87
2018-08-28T08:15:33.217Z,39.78
2018-08-28T08:16:11.326Z,39.99
2018-08-28T08:16:49.274Z,39.55
2018-08-28T08:17:27.201Z,40.42
2018-08-28T08:18:05.197Z,40.64
2018-08-28T08:18:43.115Z,41.06